sensor_id;sensor_type;location;lat;lon;timestamp;P1;durP1;ratioP1;P2;durP2;ratioP2
86088;SDS011;76699;52.232;5.176;2024-03-06T00:01:52;58.87;;;24.90;;
86088;SDS011;76699;52.232;5.176;2024-03-06T00:04:17;61.50;;;25.88;;
86088;SDS011;76699;52.232;5.176;2024-03-06T00:06:43;64.37;;;24.90;;
86088;SDS011;76699;52.232;5.176;2024-03-06T00:09:08;73.63;;;27.10;;
86088;SDS011;76699;52.232;5.176;2024-03-06T00:11:34;70.55;;;28.13;;
86088;SDS011;76699;52.232;5.176;2024-03-06T00:14:01;71.82;;;27.70;;
86088;SDS011;76699;52.232;5.176;2024-03-06T00:16:30;78.25;;;27.73;;
86088;SDS011;76699;52.232;5.176;2024-03-06T00:18:59;73.38;;;25.85;;
86088;SDS011;76699;52.232;5.176;2024-03-06T00:21:24;62.13;;;27.35;;
86088;SDS011;76699;52.232;5.176;2024-03-06T00:23:49;64.83;;;26.63;;
86088;SDS011;76699;52.232;5.176;2024-03-06T00:26:15;121.30;;;31.00;;
86088;SDS011;76699;52.232;5.176;2024-03-06T00:28:40;71.57;;;25.23;;
86088;SDS011;76699;52.232;5.176;2024-03-06T00:31:05;78.40;;;27.93;;
86088;SDS011;76699;52.232;5.176;2024-03-06T00:33:31;86.53;;;30.50;;
86088;SDS011;76699;52.232;5.176;2024-03-06T00:35:56;125.60;;;30.83;;
86088;SDS011;76699;52.232;5.176;2024-03-06T00:38:21;125.77;;;31.73;;
86088;SDS011;76699;52.232;5.176;2024-03-06T00:40:47;74.00;;;28.10;;
86088;SDS011;76699;52.232;5.176;2024-03-06T00:43:12;115.97;;;30.73;;
86088;SDS011;76699;52.232;5.176;2024-03-06T00:45:37;75.72;;;27.67;;
86088;SDS011;76699;52.232;5.176;2024-03-06T00:48:03;168.37;;;35.17;;
86088;SDS011;76699;52.232;5.176;2024-03-06T00:50:28;82.47;;;29.15;;
86088;SDS011;76699;52.232;5.176;2024-03-06T00:52:54;84.68;;;29.23;;
86088;SDS011;76699;52.232;5.176;2024-03-06T00:55:19;79.80;;;29.83;;
86088;SDS011;76699;52.232;5.176;2024-03-06T00:57:44;72.57;;;27.47;;
86088;SDS011;76699;52.232;5.176;2024-03-06T01:00:10;69.13;;;28.03;;
86088;SDS011;76699;52.232;5.176;2024-03-06T01:02:36;74.30;;;28.73;;
86088;SDS011;76699;52.232;5.176;2024-03-06T01:05:02;98.28;;;32.97;;
86088;SDS011;76699;52.232;5.176;2024-03-06T01:07:28;82.53;;;29.20;;
86088;SDS011;76699;52.232;5.176;2024-03-06T01:09:55;81.85;;;28.08;;
86088;SDS011;76699;52.232;5.176;2024-03-06T01:12:22;80.00;;;28.85;;
86088;SDS011;76699;52.232;5.176;2024-03-06T01:14:50;85.50;;;28.65;;
86088;SDS011;76699;52.232;5.176;2024-03-06T01:17:16;82.07;;;28.15;;
86088;SDS011;76699;52.232;5.176;2024-03-06T01:19:41;87.23;;;30.23;;
86088;SDS011;76699;52.232;5.176;2024-03-06T01:22:08;97.70;;;29.20;;
86088;SDS011;76699;52.232;5.176;2024-03-06T01:24:34;92.47;;;30.27;;
86088;SDS011;76699;52.232;5.176;2024-03-06T01:26:59;92.33;;;29.87;;
86088;SDS011;76699;52.232;5.176;2024-03-06T01:29:27;93.20;;;29.83;;
86088;SDS011;76699;52.232;5.176;2024-03-06T01:31:53;91.78;;;30.20;;
86088;SDS011;76699;52.232;5.176;2024-03-06T01:34:18;96.87;;;30.47;;
86088;SDS011;76699;52.232;5.176;2024-03-06T01:36:44;92.35;;;30.80;;
86088;SDS011;76699;52.232;5.176;2024-03-06T01:39:09;90.40;;;29.77;;
86088;SDS011;76699;52.232;5.176;2024-03-06T01:41:34;96.43;;;30.53;;
86088;SDS011;76699;52.232;5.176;2024-03-06T01:44:00;96.73;;;30.27;;
86088;SDS011;76699;52.232;5.176;2024-03-06T01:46:26;89.68;;;29.20;;
86088;SDS011;76699;52.232;5.176;2024-03-06T01:48:51;102.43;;;30.97;;
86088;SDS011;76699;52.232;5.176;2024-03-06T01:51:17;89.73;;;28.73;;
86088;SDS011;76699;52.232;5.176;2024-03-06T01:53:42;72.72;;;26.67;;
86088;SDS011;76699;52.232;5.176;2024-03-06T01:56:07;78.00;;;27.70;;
86088;SDS011;76699;52.232;5.176;2024-03-06T01:58:36;78.10;;;28.55;;
86088;SDS011;76699;52.232;5.176;2024-03-06T02:01:03;67.55;;;26.58;;
86088;SDS011;76699;52.232;5.176;2024-03-06T02:03:31;66.00;;;26.30;;
86088;SDS011;76699;52.232;5.176;2024-03-06T02:05:57;64.65;;;27.65;;
86088;SDS011;76699;52.232;5.176;2024-03-06T02:08:23;68.95;;;26.25;;
86088;SDS011;76699;52.232;5.176;2024-03-06T02:10:49;65.47;;;26.25;;
86088;SDS011;76699;52.232;5.176;2024-03-06T02:13:15;64.28;;;26.30;;
86088;SDS011;76699;52.232;5.176;2024-03-06T02:15:40;63.25;;;25.05;;
86088;SDS011;76699;52.232;5.176;2024-03-06T02:18:06;65.22;;;25.15;;
86088;SDS011;76699;52.232;5.176;2024-03-06T02:20:32;57.65;;;23.95;;
86088;SDS011;76699;52.232;5.176;2024-03-06T02:22:59;59.45;;;24.88;;
86088;SDS011;76699;52.232;5.176;2024-03-06T02:25:24;59.57;;;25.40;;
86088;SDS011;76699;52.232;5.176;2024-03-06T02:27:49;60.03;;;23.67;;
86088;SDS011;76699;52.232;5.176;2024-03-06T02:30:18;55.30;;;25.20;;
86088;SDS011;76699;52.232;5.176;2024-03-06T02:32:44;49.58;;;21.92;;
86088;SDS011;76699;52.232;5.176;2024-03-06T02:35:09;52.67;;;23.00;;
86088;SDS011;76699;52.232;5.176;2024-03-06T02:37:35;57.53;;;24.90;;
86088;SDS011;76699;52.232;5.176;2024-03-06T02:40:00;55.88;;;24.50;;
86088;SDS011;76699;52.232;5.176;2024-03-06T02:42:27;54.63;;;24.13;;
86088;SDS011;76699;52.232;5.176;2024-03-06T02:44:53;49.70;;;24.30;;
86088;SDS011;76699;52.232;5.176;2024-03-06T02:47:18;52.42;;;23.20;;
86088;SDS011;76699;52.232;5.176;2024-03-06T02:49:44;54.05;;;24.40;;
86088;SDS011;76699;52.232;5.176;2024-03-06T02:52:10;49.00;;;21.88;;
86088;SDS011;76699;52.232;5.176;2024-03-06T02:54:35;58.70;;;25.87;;
86088;SDS011;76699;52.232;5.176;2024-03-06T02:57:00;54.60;;;23.83;;
86088;SDS011;76699;52.232;5.176;2024-03-06T02:59:26;54.30;;;25.05;;
86088;SDS011;76699;52.232;5.176;2024-03-06T03:01:51;56.83;;;24.83;;
86088;SDS011;76699;52.232;5.176;2024-03-06T03:04:17;55.72;;;24.05;;
86088;SDS011;76699;52.232;5.176;2024-03-06T03:06:43;53.60;;;24.92;;
86088;SDS011;76699;52.232;5.176;2024-03-06T03:09:09;51.37;;;24.27;;
86088;SDS011;76699;52.232;5.176;2024-03-06T03:11:36;52.22;;;23.25;;
86088;SDS011;76699;52.232;5.176;2024-03-06T03:14:02;50.28;;;24.00;;
86088;SDS011;76699;52.232;5.176;2024-03-06T03:16:28;61.25;;;26.20;;
86088;SDS011;76699;52.232;5.176;2024-03-06T03:18:55;52.58;;;23.83;;
86088;SDS011;76699;52.232;5.176;2024-03-06T03:21:20;59.95;;;25.25;;
86088;SDS011;76699;52.232;5.176;2024-03-06T03:23:46;58.20;;;24.92;;
86088;SDS011;76699;52.232;5.176;2024-03-06T03:26:11;51.63;;;22.85;;
86088;SDS011;76699;52.232;5.176;2024-03-06T03:28:39;53.67;;;23.33;;
86088;SDS011;76699;52.232;5.176;2024-03-06T03:31:09;48.60;;;22.85;;
86088;SDS011;76699;52.232;5.176;2024-03-06T03:33:44;52.45;;;24.80;;
86088;SDS011;76699;52.232;5.176;2024-03-06T03:36:09;54.03;;;25.38;;
86088;SDS011;76699;52.232;5.176;2024-03-06T03:38:35;61.00;;;25.93;;
86088;SDS011;76699;52.232;5.176;2024-03-06T03:41:06;54.95;;;24.52;;
86088;SDS011;76699;52.232;5.176;2024-03-06T03:43:32;56.03;;;26.45;;
86088;SDS011;76699;52.232;5.176;2024-03-06T03:45:58;60.35;;;27.08;;
86088;SDS011;76699;52.232;5.176;2024-03-06T03:48:23;60.78;;;25.52;;
86088;SDS011;76699;52.232;5.176;2024-03-06T03:50:49;54.80;;;24.73;;
86088;SDS011;76699;52.232;5.176;2024-03-06T03:53:14;62.97;;;26.77;;
86088;SDS011;76699;52.232;5.176;2024-03-06T03:55:40;61.70;;;26.33;;
86088;SDS011;76699;52.232;5.176;2024-03-06T03:58:06;67.73;;;26.60;;
86088;SDS011;76699;52.232;5.176;2024-03-06T04:00:32;64.35;;;26.85;;
86088;SDS011;76699;52.232;5.176;2024-03-06T04:02:57;64.53;;;27.17;;
86088;SDS011;76699;52.232;5.176;2024-03-06T04:05:23;67.87;;;26.40;;
86088;SDS011;76699;52.232;5.176;2024-03-06T04:07:48;68.78;;;27.42;;
86088;SDS011;76699;52.232;5.176;2024-03-06T04:10:13;64.73;;;25.97;;
86088;SDS011;76699;52.232;5.176;2024-03-06T04:12:39;65.30;;;26.30;;
86088;SDS011;76699;52.232;5.176;2024-03-06T04:15:05;66.28;;;26.35;;
86088;SDS011;76699;52.232;5.176;2024-03-06T04:17:30;62.17;;;26.55;;
86088;SDS011;76699;52.232;5.176;2024-03-06T04:19:56;69.22;;;26.40;;
86088;SDS011;76699;52.232;5.176;2024-03-06T04:22:21;90.38;;;28.02;;
86088;SDS011;76699;52.232;5.176;2024-03-06T04:24:47;80.10;;;29.23;;
86088;SDS011;76699;52.232;5.176;2024-03-06T04:27:12;72.97;;;27.63;;
86088;SDS011;76699;52.232;5.176;2024-03-06T04:29:38;74.88;;;28.58;;
86088;SDS011;76699;52.232;5.176;2024-03-06T04:32:03;72.30;;;27.37;;
86088;SDS011;76699;52.232;5.176;2024-03-06T04:34:29;72.10;;;28.48;;
86088;SDS011;76699;52.232;5.176;2024-03-06T04:36:54;76.47;;;28.13;;
86088;SDS011;76699;52.232;5.176;2024-03-06T04:39:19;77.83;;;28.43;;
86088;SDS011;76699;52.232;5.176;2024-03-06T04:41:45;89.53;;;30.90;;
86088;SDS011;76699;52.232;5.176;2024-03-06T04:44:10;85.67;;;29.63;;
86088;SDS011;76699;52.232;5.176;2024-03-06T04:46:35;79.87;;;28.13;;
86088;SDS011;76699;52.232;5.176;2024-03-06T04:49:01;76.75;;;28.20;;
86088;SDS011;76699;52.232;5.176;2024-03-06T04:51:27;90.53;;;30.95;;
86088;SDS011;76699;52.232;5.176;2024-03-06T04:53:52;102.17;;;32.10;;
86088;SDS011;76699;52.232;5.176;2024-03-06T04:56:18;96.27;;;31.70;;
86088;SDS011;76699;52.232;5.176;2024-03-06T04:58:45;99.22;;;31.25;;
86088;SDS011;76699;52.232;5.176;2024-03-06T05:01:11;100.47;;;31.67;;
86088;SDS011;76699;52.232;5.176;2024-03-06T05:03:37;96.88;;;29.52;;
86088;SDS011;76699;52.232;5.176;2024-03-06T05:06:03;88.80;;;28.98;;
86088;SDS011;76699;52.232;5.176;2024-03-06T05:08:31;96.38;;;30.52;;
86088;SDS011;76699;52.232;5.176;2024-03-06T05:10:58;117.63;;;31.92;;
86088;SDS011;76699;52.232;5.176;2024-03-06T05:13:25;110.72;;;32.45;;
86088;SDS011;76699;52.232;5.176;2024-03-06T05:15:51;100.32;;;31.52;;
86088;SDS011;76699;52.232;5.176;2024-03-06T05:18:17;108.32;;;31.98;;
86088;SDS011;76699;52.232;5.176;2024-03-06T05:20:42;99.77;;;32.10;;
86088;SDS011;76699;52.232;5.176;2024-03-06T05:23:08;105.30;;;32.05;;
86088;SDS011;76699;52.232;5.176;2024-03-06T05:25:33;112.35;;;33.22;;
86088;SDS011;76699;52.232;5.176;2024-03-06T05:27:59;106.22;;;30.83;;
86088;SDS011;76699;52.232;5.176;2024-03-06T05:30:24;94.53;;;29.73;;
86088;SDS011;76699;52.232;5.176;2024-03-06T05:32:49;105.57;;;32.37;;
86088;SDS011;76699;52.232;5.176;2024-03-06T05:35:15;129.73;;;35.20;;
86088;SDS011;76699;52.232;5.176;2024-03-06T05:37:40;128.10;;;34.83;;
86088;SDS011;76699;52.232;5.176;2024-03-06T05:40:06;122.57;;;34.55;;
86088;SDS011;76699;52.232;5.176;2024-03-06T05:42:32;130.90;;;35.35;;
86088;SDS011;76699;52.232;5.176;2024-03-06T05:44:58;99.03;;;29.70;;
86088;SDS011;76699;52.232;5.176;2024-03-06T05:47:29;86.15;;;28.35;;
86088;SDS011;76699;52.232;5.176;2024-03-06T05:49:56;99.35;;;31.42;;
86088;SDS011;76699;52.232;5.176;2024-03-06T05:52:21;119.17;;;32.20;;
86088;SDS011;76699;52.232;5.176;2024-03-06T05:54:46;147.23;;;36.33;;
86088;SDS011;76699;52.232;5.176;2024-03-06T05:57:12;139.00;;;36.33;;
86088;SDS011;76699;52.232;5.176;2024-03-06T05:59:37;377.83;;;49.17;;
86088;SDS011;76699;52.232;5.176;2024-03-06T06:02:04;140.63;;;36.05;;
86088;SDS011;76699;52.232;5.176;2024-03-06T06:04:29;138.47;;;35.20;;
86088;SDS011;76699;52.232;5.176;2024-03-06T06:06:55;122.90;;;35.63;;
86088;SDS011;76699;52.232;5.176;2024-03-06T06:09:20;122.23;;;33.53;;
86088;SDS011;76699;52.232;5.176;2024-03-06T06:11:45;139.40;;;34.70;;
86088;SDS011;76699;52.232;5.176;2024-03-06T06:14:12;152.73;;;36.47;;
86088;SDS011;76699;52.232;5.176;2024-03-06T06:16:38;134.33;;;34.20;;
86088;SDS011;76699;52.232;5.176;2024-03-06T06:19:05;126.72;;;35.22;;
86088;SDS011;76699;52.232;5.176;2024-03-06T06:21:31;135.55;;;33.95;;
86088;SDS011;76699;52.232;5.176;2024-03-06T06:23:57;143.10;;;34.85;;
86088;SDS011;76699;52.232;5.176;2024-03-06T06:26:22;121.00;;;34.10;;
86088;SDS011;76699;52.232;5.176;2024-03-06T06:28:47;118.03;;;33.23;;
86088;SDS011;76699;52.232;5.176;2024-03-06T06:31:13;146.00;;;35.53;;
86088;SDS011;76699;52.232;5.176;2024-03-06T06:33:38;174.73;;;41.47;;
86088;SDS011;76699;52.232;5.176;2024-03-06T06:36:03;189.33;;;41.83;;
86088;SDS011;76699;52.232;5.176;2024-03-06T06:38:29;214.02;;;43.20;;
86088;SDS011;76699;52.232;5.176;2024-03-06T06:40:55;172.97;;;41.77;;
86088;SDS011;76699;52.232;5.176;2024-03-06T06:43:20;193.18;;;43.22;;
86088;SDS011;76699;52.232;5.176;2024-03-06T06:45:46;188.75;;;42.92;;
86088;SDS011;76699;52.232;5.176;2024-03-06T06:48:11;173.30;;;42.07;;
86088;SDS011;76699;52.232;5.176;2024-03-06T06:50:37;176.83;;;38.47;;
86088;SDS011;76699;52.232;5.176;2024-03-06T06:53:02;195.60;;;41.35;;
86088;SDS011;76699;52.232;5.176;2024-03-06T06:55:28;176.02;;;39.45;;
86088;SDS011;76699;52.232;5.176;2024-03-06T06:57:54;168.53;;;39.33;;
86088;SDS011;76699;52.232;5.176;2024-03-06T07:00:20;124.88;;;32.38;;
86088;SDS011;76699;52.232;5.176;2024-03-06T07:02:47;102.70;;;31.55;;
86088;SDS011;76699;52.232;5.176;2024-03-06T07:05:14;84.03;;;31.08;;
86088;SDS011;76699;52.232;5.176;2024-03-06T07:07:40;72.00;;;28.48;;
86088;SDS011;76699;52.232;5.176;2024-03-06T07:10:06;61.08;;;27.20;;
86088;SDS011;76699;52.232;5.176;2024-03-06T07:12:32;57.53;;;26.30;;
86088;SDS011;76699;52.232;5.176;2024-03-06T07:14:57;55.38;;;26.75;;
86088;SDS011;76699;52.232;5.176;2024-03-06T07:17:24;50.88;;;23.95;;
86088;SDS011;76699;52.232;5.176;2024-03-06T07:19:49;59.97;;;26.63;;
86088;SDS011;76699;52.232;5.176;2024-03-06T07:22:15;57.90;;;24.60;;
86088;SDS011;76699;52.232;5.176;2024-03-06T07:24:41;53.70;;;23.80;;
86088;SDS011;76699;52.232;5.176;2024-03-06T07:27:07;56.20;;;25.50;;
86088;SDS011;76699;52.232;5.176;2024-03-06T07:29:34;46.42;;;22.63;;
86088;SDS011;76699;52.232;5.176;2024-03-06T07:32:00;53.72;;;23.80;;
86088;SDS011;76699;52.232;5.176;2024-03-06T07:34:25;63.78;;;21.48;;
86088;SDS011;76699;52.232;5.176;2024-03-06T07:36:51;65.82;;;26.25;;
86088;SDS011;76699;52.232;5.176;2024-03-06T07:39:16;62.90;;;20.43;;
86088;SDS011;76699;52.232;5.176;2024-03-06T07:41:42;75.43;;;23.42;;
86088;SDS011;76699;52.232;5.176;2024-03-06T07:44:07;61.23;;;22.27;;
86088;SDS011;76699;52.232;5.176;2024-03-06T07:46:34;63.78;;;22.98;;
86088;SDS011;76699;52.232;5.176;2024-03-06T07:48:59;62.40;;;22.25;;
86088;SDS011;76699;52.232;5.176;2024-03-06T07:51:25;67.30;;;22.55;;
86088;SDS011;76699;52.232;5.176;2024-03-06T07:53:50;53.80;;;23.03;;
86088;SDS011;76699;52.232;5.176;2024-03-06T07:56:17;53.47;;;21.17;;
86088;SDS011;76699;52.232;5.176;2024-03-06T07:58:43;75.47;;;23.75;;
86088;SDS011;76699;52.232;5.176;2024-03-06T08:01:08;40.90;;;19.90;;
86088;SDS011;76699;52.232;5.176;2024-03-06T08:03:34;48.08;;;19.15;;
86088;SDS011;76699;52.232;5.176;2024-03-06T08:05:59;47.10;;;20.83;;
86088;SDS011;76699;52.232;5.176;2024-03-06T08:08:25;43.42;;;20.45;;
86088;SDS011;76699;52.232;5.176;2024-03-06T08:10:51;44.20;;;22.23;;
86088;SDS011;76699;52.232;5.176;2024-03-06T08:13:16;44.20;;;21.97;;
86088;SDS011;76699;52.232;5.176;2024-03-06T08:15:43;36.95;;;19.42;;
86088;SDS011;76699;52.232;5.176;2024-03-06T08:18:09;38.35;;;18.73;;
86088;SDS011;76699;52.232;5.176;2024-03-06T08:20:34;37.28;;;19.42;;
86088;SDS011;76699;52.232;5.176;2024-03-06T08:22:59;38.27;;;19.93;;
86088;SDS011;76699;52.232;5.176;2024-03-06T08:25:25;40.70;;;18.93;;
86088;SDS011;76699;52.232;5.176;2024-03-06T08:27:50;38.80;;;19.00;;
86088;SDS011;76699;52.232;5.176;2024-03-06T08:30:15;47.27;;;21.83;;
86088;SDS011;76699;52.232;5.176;2024-03-06T08:32:41;36.70;;;18.88;;
86088;SDS011;76699;52.232;5.176;2024-03-06T08:35:09;38.60;;;20.10;;
86088;SDS011;76699;52.232;5.176;2024-03-06T08:37:36;33.20;;;16.15;;
86088;SDS011;76699;52.232;5.176;2024-03-06T08:40:02;48.28;;;22.67;;
86088;SDS011;76699;52.232;5.176;2024-03-06T08:42:28;35.95;;;17.38;;
86088;SDS011;76699;52.232;5.176;2024-03-06T08:44:53;37.05;;;17.70;;
86088;SDS011;76699;52.232;5.176;2024-03-06T08:47:19;41.53;;;19.20;;
86088;SDS011;76699;52.232;5.176;2024-03-06T08:49:44;37.08;;;17.65;;
86088;SDS011;76699;52.232;5.176;2024-03-06T08:52:11;50.15;;;22.70;;
86088;SDS011;76699;52.232;5.176;2024-03-06T08:54:36;43.65;;;20.98;;
86088;SDS011;76699;52.232;5.176;2024-03-06T08:57:02;36.55;;;18.98;;
86088;SDS011;76699;52.232;5.176;2024-03-06T08:59:29;31.58;;;14.55;;
86088;SDS011;76699;52.232;5.176;2024-03-06T09:01:54;34.80;;;16.95;;
86088;SDS011;76699;52.232;5.176;2024-03-06T09:04:23;32.85;;;17.67;;
86088;SDS011;76699;52.232;5.176;2024-03-06T09:06:49;31.23;;;17.53;;
86088;SDS011;76699;52.232;5.176;2024-03-06T09:09:14;33.03;;;19.23;;
86088;SDS011;76699;52.232;5.176;2024-03-06T09:11:42;34.92;;;19.17;;
86088;SDS011;76699;52.232;5.176;2024-03-06T09:14:08;33.35;;;18.13;;
86088;SDS011;76699;52.232;5.176;2024-03-06T09:16:34;32.03;;;17.75;;
86088;SDS011;76699;52.232;5.176;2024-03-06T09:19:00;32.17;;;17.17;;
86088;SDS011;76699;52.232;5.176;2024-03-06T09:21:25;32.50;;;18.52;;
86088;SDS011;76699;52.232;5.176;2024-03-06T09:23:51;24.88;;;14.40;;
86088;SDS011;76699;52.232;5.176;2024-03-06T09:26:16;30.20;;;18.73;;
86088;SDS011;76699;52.232;5.176;2024-03-06T09:28:42;26.67;;;17.52;;
86088;SDS011;76699;52.232;5.176;2024-03-06T09:31:07;29.30;;;16.02;;
86088;SDS011;76699;52.232;5.176;2024-03-06T09:33:33;33.20;;;19.90;;
86088;SDS011;76699;52.232;5.176;2024-03-06T09:35:58;28.05;;;18.42;;
86088;SDS011;76699;52.232;5.176;2024-03-06T09:38:24;28.02;;;18.15;;
86088;SDS011;76699;52.232;5.176;2024-03-06T09:40:49;19.37;;;12.73;;
86088;SDS011;76699;52.232;5.176;2024-03-06T09:43:16;22.33;;;14.75;;
86088;SDS011;76699;52.232;5.176;2024-03-06T09:45:43;29.15;;;15.18;;
86088;SDS011;76699;52.232;5.176;2024-03-06T09:48:13;26.92;;;17.98;;
86088;SDS011;76699;52.232;5.176;2024-03-06T09:50:38;27.35;;;17.90;;
86088;SDS011;76699;52.232;5.176;2024-03-06T09:53:10;25.58;;;16.38;;
86088;SDS011;76699;52.232;5.176;2024-03-06T09:58:05;26.73;;;16.98;;
86088;SDS011;76699;52.232;5.176;2024-03-06T10:00:31;24.80;;;16.40;;
86088;SDS011;76699;52.232;5.176;2024-03-06T10:02:58;27.50;;;18.23;;
86088;SDS011;76699;52.232;5.176;2024-03-06T10:05:26;30.20;;;19.00;;
86088;SDS011;76699;52.232;5.176;2024-03-06T10:07:52;33.05;;;21.08;;
86088;SDS011;76699;52.232;5.176;2024-03-06T10:10:18;31.42;;;19.73;;
86088;SDS011;76699;52.232;5.176;2024-03-06T10:12:45;30.27;;;17.20;;
86088;SDS011;76699;52.232;5.176;2024-03-06T10:15:13;27.08;;;16.10;;
86088;SDS011;76699;52.232;5.176;2024-03-06T10:17:38;29.65;;;18.10;;
86088;SDS011;76699;52.232;5.176;2024-03-06T10:20:16;26.73;;;15.47;;
86088;SDS011;76699;52.232;5.176;2024-03-06T10:22:41;25.15;;;16.20;;
86088;SDS011;76699;52.232;5.176;2024-03-06T10:25:08;27.15;;;16.33;;
86088;SDS011;76699;52.232;5.176;2024-03-06T10:27:34;28.02;;;16.88;;
86088;SDS011;76699;52.232;5.176;2024-03-06T10:30:00;30.95;;;17.92;;
86088;SDS011;76699;52.232;5.176;2024-03-06T10:32:26;27.15;;;16.67;;
86088;SDS011;76699;52.232;5.176;2024-03-06T10:34:52;28.77;;;16.73;;
86088;SDS011;76699;52.232;5.176;2024-03-06T10:37:17;27.43;;;17.30;;
86088;SDS011;76699;52.232;5.176;2024-03-06T10:39:43;26.73;;;16.52;;
86088;SDS011;76699;52.232;5.176;2024-03-06T10:42:12;25.77;;;16.05;;
86088;SDS011;76699;52.232;5.176;2024-03-06T10:44:38;25.85;;;15.27;;
86088;SDS011;76699;52.232;5.176;2024-03-06T10:47:16;28.50;;;16.98;;
86088;SDS011;76699;52.232;5.176;2024-03-06T10:49:43;24.67;;;16.08;;
86088;SDS011;76699;52.232;5.176;2024-03-06T10:52:10;25.15;;;15.18;;
86088;SDS011;76699;52.232;5.176;2024-03-06T10:54:36;24.00;;;15.27;;
86088;SDS011;76699;52.232;5.176;2024-03-06T10:57:07;27.50;;;17.00;;
86088;SDS011;76699;52.232;5.176;2024-03-06T10:59:34;26.38;;;17.50;;
86088;SDS011;76699;52.232;5.176;2024-03-06T11:02:00;25.83;;;16.33;;
86088;SDS011;76699;52.232;5.176;2024-03-06T11:04:34;24.38;;;17.02;;
86088;SDS011;76699;52.232;5.176;2024-03-06T11:07:03;26.23;;;17.42;;
86088;SDS011;76699;52.232;5.176;2024-03-06T11:09:33;18.95;;;13.50;;
86088;SDS011;76699;52.232;5.176;2024-03-06T11:12:05;19.75;;;14.23;;
86088;SDS011;76699;52.232;5.176;2024-03-06T11:14:37;20.63;;;14.50;;
86088;SDS011;76699;52.232;5.176;2024-03-06T11:19:30;19.73;;;14.02;;
86088;SDS011;76699;52.232;5.176;2024-03-06T11:21:56;20.80;;;14.23;;
86088;SDS011;76699;52.232;5.176;2024-03-06T11:24:22;18.55;;;13.43;;
86088;SDS011;76699;52.232;5.176;2024-03-06T11:26:55;21.05;;;14.25;;
86088;SDS011;76699;52.232;5.176;2024-03-06T11:29:23;19.55;;;14.15;;
86088;SDS011;76699;52.232;5.176;2024-03-06T11:32:04;22.70;;;15.27;;
86088;SDS011;76699;52.232;5.176;2024-03-06T11:34:35;21.58;;;14.30;;
86088;SDS011;76699;52.232;5.176;2024-03-06T11:37:04;24.27;;;16.70;;
86088;SDS011;76699;52.232;5.176;2024-03-06T11:39:35;24.35;;;15.82;;
86088;SDS011;76699;52.232;5.176;2024-03-06T11:42:01;21.52;;;13.02;;
86088;SDS011;76699;52.232;5.176;2024-03-06T11:44:27;21.02;;;13.35;;
86088;SDS011;76699;52.232;5.176;2024-03-06T11:51:49;21.90;;;14.55;;
86088;SDS011;76699;52.232;5.176;2024-03-06T11:54:15;21.15;;;13.95;;
86088;SDS011;76699;52.232;5.176;2024-03-06T11:56:44;22.70;;;14.82;;
86088;SDS011;76699;52.232;5.176;2024-03-06T11:59:12;20.65;;;12.65;;
86088;SDS011;76699;52.232;5.176;2024-03-06T12:01:37;21.20;;;13.45;;
86088;SDS011;76699;52.232;5.176;2024-03-06T12:04:03;21.50;;;13.88;;
86088;SDS011;76699;52.232;5.176;2024-03-06T12:06:29;21.52;;;13.15;;
86088;SDS011;76699;52.232;5.176;2024-03-06T12:08:57;21.27;;;13.10;;
86088;SDS011;76699;52.232;5.176;2024-03-06T12:11:23;23.00;;;13.60;;
86088;SDS011;76699;52.232;5.176;2024-03-06T12:13:50;18.98;;;11.48;;
86088;SDS011;76699;52.232;5.176;2024-03-06T12:16:16;20.25;;;12.10;;
86088;SDS011;76699;52.232;5.176;2024-03-06T12:18:42;19.10;;;11.60;;
86088;SDS011;76699;52.232;5.176;2024-03-06T12:21:07;19.60;;;11.30;;
86088;SDS011;76699;52.232;5.176;2024-03-06T12:23:33;20.83;;;11.75;;
86088;SDS011;76699;52.232;5.176;2024-03-06T12:26:02;17.93;;;11.30;;
86088;SDS011;76699;52.232;5.176;2024-03-06T12:28:31;17.85;;;10.77;;
86088;SDS011;76699;52.232;5.176;2024-03-06T12:30:57;15.68;;;9.80;;
86088;SDS011;76699;52.232;5.176;2024-03-06T12:33:26;18.15;;;9.25;;
86088;SDS011;76699;52.232;5.176;2024-03-06T12:36:03;15.38;;;8.73;;
86088;SDS011;76699;52.232;5.176;2024-03-06T12:38:30;12.98;;;8.20;;
86088;SDS011;76699;52.232;5.176;2024-03-06T12:40:56;13.85;;;7.97;;
86088;SDS011;76699;52.232;5.176;2024-03-06T12:43:21;14.32;;;8.50;;
86088;SDS011;76699;52.232;5.176;2024-03-06T12:45:47;17.47;;;8.47;;
86088;SDS011;76699;52.232;5.176;2024-03-06T12:48:12;13.70;;;7.53;;
86088;SDS011;76699;52.232;5.176;2024-03-06T12:50:38;16.33;;;8.77;;
86088;SDS011;76699;52.232;5.176;2024-03-06T12:53:03;13.52;;;8.35;;
86088;SDS011;76699;52.232;5.176;2024-03-06T12:55:29;12.45;;;7.70;;
86088;SDS011;76699;52.232;5.176;2024-03-06T12:57:56;15.20;;;7.10;;
86088;SDS011;76699;52.232;5.176;2024-03-06T13:00:22;15.30;;;8.10;;
86088;SDS011;76699;52.232;5.176;2024-03-06T13:02:47;14.65;;;7.80;;
86088;SDS011;76699;52.232;5.176;2024-03-06T13:05:13;10.20;;;6.15;;
86088;SDS011;76699;52.232;5.176;2024-03-06T13:07:38;12.52;;;7.57;;
86088;SDS011;76699;52.232;5.176;2024-03-06T13:10:04;12.82;;;7.35;;
86088;SDS011;76699;52.232;5.176;2024-03-06T13:12:30;12.05;;;6.70;;
86088;SDS011;76699;52.232;5.176;2024-03-06T13:14:55;12.25;;;6.45;;
86088;SDS011;76699;52.232;5.176;2024-03-06T13:17:21;13.32;;;6.97;;
86088;SDS011;76699;52.232;5.176;2024-03-06T13:19:47;12.85;;;6.70;;
86088;SDS011;76699;52.232;5.176;2024-03-06T13:22:12;14.13;;;7.33;;
86088;SDS011;76699;52.232;5.176;2024-03-06T13:24:37;11.20;;;6.63;;
86088;SDS011;76699;52.232;5.176;2024-03-06T13:27:03;9.80;;;6.03;;
86088;SDS011;76699;52.232;5.176;2024-03-06T13:29:29;11.98;;;6.93;;
86088;SDS011;76699;52.232;5.176;2024-03-06T13:31:54;10.18;;;5.88;;
86088;SDS011;76699;52.232;5.176;2024-03-06T13:34:20;8.87;;;5.53;;
86088;SDS011;76699;52.232;5.176;2024-03-06T13:36:45;13.07;;;6.53;;
86088;SDS011;76699;52.232;5.176;2024-03-06T13:39:10;10.27;;;6.30;;
86088;SDS011;76699;52.232;5.176;2024-03-06T13:41:36;12.90;;;7.18;;
86088;SDS011;76699;52.232;5.176;2024-03-06T13:44:01;9.87;;;5.77;;
86088;SDS011;76699;52.232;5.176;2024-03-06T13:46:34;11.38;;;6.03;;
86088;SDS011;76699;52.232;5.176;2024-03-06T13:48:59;7.65;;;5.47;;
86088;SDS011;76699;52.232;5.176;2024-03-06T13:51:25;10.57;;;6.13;;
86088;SDS011;76699;52.232;5.176;2024-03-06T13:53:51;9.20;;;5.20;;
86088;SDS011;76699;52.232;5.176;2024-03-06T13:56:16;10.67;;;5.20;;
86088;SDS011;76699;52.232;5.176;2024-03-06T13:58:41;9.00;;;5.20;;
86088;SDS011;76699;52.232;5.176;2024-03-06T14:01:07;7.72;;;4.78;;
86088;SDS011;76699;52.232;5.176;2024-03-06T14:03:32;8.00;;;4.40;;
86088;SDS011;76699;52.232;5.176;2024-03-06T14:05:59;8.63;;;4.90;;
86088;SDS011;76699;52.232;5.176;2024-03-06T14:08:24;7.07;;;4.00;;
86088;SDS011;76699;52.232;5.176;2024-03-06T14:10:50;9.02;;;4.60;;
86088;SDS011;76699;52.232;5.176;2024-03-06T14:13:16;11.13;;;4.90;;
86088;SDS011;76699;52.232;5.176;2024-03-06T14:15:41;8.20;;;4.60;;
86088;SDS011;76699;52.232;5.176;2024-03-06T14:18:07;8.27;;;4.53;;
86088;SDS011;76699;52.232;5.176;2024-03-06T14:20:32;7.87;;;4.30;;
86088;SDS011;76699;52.232;5.176;2024-03-06T14:22:58;9.07;;;4.50;;
86088;SDS011;76699;52.232;5.176;2024-03-06T14:25:23;8.93;;;5.00;;